sensor_id;sensor_type;location;lat;lon;timestamp;P1;durP1;ratioP1;P2;durP2;ratioP2
48727;SDS011;34527;45.618;5.130;2023-04-15T00:00:28;2.65;;;1.50;;
48727;SDS011;34527;45.618;5.130;2023-04-15T00:02:54;2.13;;;1.25;;
48727;SDS011;34527;45.618;5.130;2023-04-15T00:05:20;1.70;;;1.60;;
48727;SDS011;34527;45.618;5.130;2023-04-15T00:07:45;2.55;;;1.52;;
48727;SDS011;34527;45.618;5.130;2023-04-15T00:10:11;2.78;;;1.40;;
48727;SDS011;34527;45.618;5.130;2023-04-15T00:12:38;2.55;;;1.40;;
48727;SDS011;34527;45.618;5.130;2023-04-15T00:15:04;2.70;;;1.60;;
48727;SDS011;34527;45.618;5.130;2023-04-15T00:17:32;3.03;;;1.38;;
48727;SDS011;34527;45.618;5.130;2023-04-15T00:19:58;2.30;;;1.67;;
48727;SDS011;34527;45.618;5.130;2023-04-15T00:22:24;5.80;;;1.58;;
48727;SDS011;34527;45.618;5.130;2023-04-15T00:24:51;2.08;;;1.50;;
48727;SDS011;34527;45.618;5.130;2023-04-15T00:27:17;4.00;;;1.45;;
48727;SDS011;34527;45.618;5.130;2023-04-15T00:29:42;2.33;;;1.50;;
48727;SDS011;34527;45.618;5.130;2023-04-15T00:32:08;5.47;;;1.48;;
48727;SDS011;34527;45.618;5.130;2023-04-15T00:34:34;2.80;;;1.30;;
48727;SDS011;34527;45.618;5.130;2023-04-15T00:36:59;2.78;;;1.50;;
48727;SDS011;34527;45.618;5.130;2023-04-15T00:39:25;3.08;;;1.55;;
48727;SDS011;34527;45.618;5.130;2023-04-15T00:41:52;2.00;;;1.50;;
48727;SDS011;34527;45.618;5.130;2023-04-15T00:44:18;2.75;;;1.42;;
48727;SDS011;34527;45.618;5.130;2023-04-15T00:46:43;2.75;;;1.30;;
48727;SDS011;34527;45.618;5.130;2023-04-15T00:49:10;1.95;;;1.30;;
48727;SDS011;34527;45.618;5.130;2023-04-15T00:51:37;2.33;;;1.40;;
48727;SDS011;34527;45.618;5.130;2023-04-15T00:54:03;2.55;;;1.25;;
48727;SDS011;34527;45.618;5.130;2023-04-15T00:56:30;2.17;;;1.30;;
48727;SDS011;34527;45.618;5.130;2023-04-15T00:58:59;2.15;;;1.50;;
48727;SDS011;34527;45.618;5.130;2023-04-15T01:01:25;4.38;;;1.25;;
48727;SDS011;34527;45.618;5.130;2023-04-15T01:03:50;2.92;;;1.30;;
48727;SDS011;34527;45.618;5.130;2023-04-15T01:06:16;3.17;;;1.80;;
48727;SDS011;34527;45.618;5.130;2023-04-15T01:08:42;2.83;;;1.33;;
48727;SDS011;34527;45.618;5.130;2023-04-15T01:11:09;2.38;;;1.00;;
48727;SDS011;34527;45.618;5.130;2023-04-15T01:13:37;2.88;;;1.40;;
48727;SDS011;34527;45.618;5.130;2023-04-15T01:16:02;2.60;;;1.40;;
48727;SDS011;34527;45.618;5.130;2023-04-15T01:18:29;2.05;;;1.20;;
48727;SDS011;34527;45.618;5.130;2023-04-15T01:20:55;2.38;;;1.15;;
48727;SDS011;34527;45.618;5.130;2023-04-15T01:23:21;1.92;;;0.85;;
48727;SDS011;34527;45.618;5.130;2023-04-15T01:25:50;2.53;;;1.45;;
48727;SDS011;34527;45.618;5.130;2023-04-15T01:28:17;2.75;;;1.38;;
48727;SDS011;34527;45.618;5.130;2023-04-15T01:30:43;2.13;;;1.20;;
48727;SDS011;34527;45.618;5.130;2023-04-15T01:33:08;2.28;;;1.23;;
48727;SDS011;34527;45.618;5.130;2023-04-15T01:35:34;1.60;;;1.20;;
48727;SDS011;34527;45.618;5.130;2023-04-15T01:38:07;3.35;;;1.67;;
48727;SDS011;34527;45.618;5.130;2023-04-15T01:40:34;4.15;;;1.60;;
48727;SDS011;34527;45.618;5.130;2023-04-15T01:43:02;3.25;;;1.58;;
48727;SDS011;34527;45.618;5.130;2023-04-15T01:45:28;2.35;;;1.42;;
48727;SDS011;34527;45.618;5.130;2023-04-15T01:47:54;3.03;;;1.40;;
48727;SDS011;34527;45.618;5.130;2023-04-15T01:50:20;6.18;;;1.50;;
48727;SDS011;34527;45.618;5.130;2023-04-15T01:52:45;2.58;;;1.27;;
48727;SDS011;34527;45.618;5.130;2023-04-15T01:55:11;1.80;;;1.27;;
48727;SDS011;34527;45.618;5.130;2023-04-15T01:57:38;3.65;;;1.30;;
48727;SDS011;34527;45.618;5.130;2023-04-15T02:00:04;3.63;;;1.63;;
48727;SDS011;34527;45.618;5.130;2023-04-15T02:02:31;2.58;;;1.38;;
48727;SDS011;34527;45.618;5.130;2023-04-15T02:04:57;2.38;;;1.60;;
48727;SDS011;34527;45.618;5.130;2023-04-15T02:07:23;2.90;;;1.45;;
48727;SDS011;34527;45.618;5.130;2023-04-15T02:09:49;2.65;;;1.25;;
48727;SDS011;34527;45.618;5.130;2023-04-15T02:12:15;1.90;;;1.20;;
48727;SDS011;34527;45.618;5.130;2023-04-15T02:14:40;3.65;;;1.10;;
48727;SDS011;34527;45.618;5.130;2023-04-15T02:17:06;1.63;;;1.30;;
48727;SDS011;34527;45.618;5.130;2023-04-15T02:19:35;1.60;;;1.17;;
48727;SDS011;34527;45.618;5.130;2023-04-15T02:22:00;1.63;;;1.17;;
48727;SDS011;34527;45.618;5.130;2023-04-15T02:24:26;3.70;;;1.30;;
48727;SDS011;34527;45.618;5.130;2023-04-15T02:26:52;3.08;;;1.25;;
48727;SDS011;34527;45.618;5.130;2023-04-15T02:29:18;3.20;;;1.77;;
48727;SDS011;34527;45.618;5.130;2023-04-15T02:31:44;3.22;;;1.40;;
48727;SDS011;34527;45.618;5.130;2023-04-15T02:34:09;5.93;;;1.48;;
48727;SDS011;34527;45.618;5.130;2023-04-15T02:36:35;2.00;;;1.20;;
48727;SDS011;34527;45.618;5.130;2023-04-15T02:39:01;2.20;;;1.35;;
48727;SDS011;34527;45.618;5.130;2023-04-15T02:41:28;2.92;;;1.50;;
48727;SDS011;34527;45.618;5.130;2023-04-15T02:43:54;2.88;;;1.40;;
48727;SDS011;34527;45.618;5.130;2023-04-15T02:46:20;3.63;;;1.67;;
48727;SDS011;34527;45.618;5.130;2023-04-15T02:48:47;3.33;;;1.65;;
48727;SDS011;34527;45.618;5.130;2023-04-15T02:51:18;3.78;;;1.60;;
48727;SDS011;34527;45.618;5.130;2023-04-15T02:53:46;1.95;;;1.40;;
48727;SDS011;34527;45.618;5.130;2023-04-15T02:56:12;1.45;;;1.35;;
48727;SDS011;34527;45.618;5.130;2023-04-15T02:58:39;3.15;;;1.58;;
48727;SDS011;34527;45.618;5.130;2023-04-15T03:01:06;3.00;;;1.48;;
48727;SDS011;34527;45.618;5.130;2023-04-15T03:03:32;2.78;;;1.45;;
48727;SDS011;34527;45.618;5.130;2023-04-15T03:05:58;2.22;;;1.58;;
48727;SDS011;34527;45.618;5.130;2023-04-15T03:08:24;5.60;;;1.73;;
48727;SDS011;34527;45.618;5.130;2023-04-15T03:10:50;2.28;;;1.58;;
48727;SDS011;34527;45.618;5.130;2023-04-15T03:13:16;3.38;;;1.40;;
48727;SDS011;34527;45.618;5.130;2023-04-15T03:15:42;1.42;;;1.33;;
48727;SDS011;34527;45.618;5.130;2023-04-15T03:18:08;2.63;;;1.55;;
48727;SDS011;34527;45.618;5.130;2023-04-15T03:20:33;1.85;;;1.33;;
48727;SDS011;34527;45.618;5.130;2023-04-15T03:23:00;4.28;;;1.10;;
48727;SDS011;34527;45.618;5.130;2023-04-15T03:25:25;1.60;;;1.02;;
48727;SDS011;34527;45.618;5.130;2023-04-15T03:27:51;3.08;;;1.00;;
48727;SDS011;34527;45.618;5.130;2023-04-15T03:30:17;1.10;;;1.00;;
48727;SDS011;34527;45.618;5.130;2023-04-15T03:32:42;2.50;;;1.13;;
48727;SDS011;34527;45.618;5.130;2023-04-15T03:35:08;3.05;;;1.27;;
48727;SDS011;34527;45.618;5.130;2023-04-15T03:37:33;2.95;;;1.08;;
48727;SDS011;34527;45.618;5.130;2023-04-15T03:39:59;7.63;;;1.55;;
48727;SDS011;34527;45.618;5.130;2023-04-15T03:42:25;1.40;;;1.30;;
48727;SDS011;34527;45.618;5.130;2023-04-15T03:44:51;3.38;;;1.50;;
48727;SDS011;34527;45.618;5.130;2023-04-15T03:47:16;3.45;;;1.45;;
48727;SDS011;34527;45.618;5.130;2023-04-15T03:49:42;3.83;;;1.50;;
48727;SDS011;34527;45.618;5.130;2023-04-15T03:52:07;2.38;;;1.50;;
48727;SDS011;34527;45.618;5.130;2023-04-15T03:54:33;1.83;;;1.23;;
48727;SDS011;34527;45.618;5.130;2023-04-15T03:56:59;1.83;;;1.40;;
48727;SDS011;34527;45.618;5.130;2023-04-15T03:59:25;3.10;;;1.60;;
48727;SDS011;34527;45.618;5.130;2023-04-15T04:01:51;1.52;;;1.20;;
48727;SDS011;34527;45.618;5.130;2023-04-15T04:04:16;3.67;;;1.27;;
48727;SDS011;34527;45.618;5.130;2023-04-15T04:06:42;3.80;;;1.33;;
48727;SDS011;34527;45.618;5.130;2023-04-15T04:09:07;4.78;;;1.27;;
48727;SDS011;34527;45.618;5.130;2023-04-15T04:11:33;2.28;;;1.50;;
48727;SDS011;34527;45.618;5.130;2023-04-15T04:13:59;1.70;;;1.23;;
48727;SDS011;34527;45.618;5.130;2023-04-15T04:16:25;3.90;;;2.05;;
48727;SDS011;34527;45.618;5.130;2023-04-15T04:18:50;4.32;;;2.00;;
48727;SDS011;34527;45.618;5.130;2023-04-15T04:21:16;2.95;;;2.20;;
48727;SDS011;34527;45.618;5.130;2023-04-15T04:23:41;2.67;;;2.08;;
48727;SDS011;34527;45.618;5.130;2023-04-15T04:26:07;2.05;;;1.85;;
48727;SDS011;34527;45.618;5.130;2023-04-15T04:28:33;4.00;;;1.90;;
48727;SDS011;34527;45.618;5.130;2023-04-15T04:30:59;2.65;;;1.92;;
48727;SDS011;34527;45.618;5.130;2023-04-15T04:33:25;2.15;;;1.58;;
48727;SDS011;34527;45.618;5.130;2023-04-15T04:35:50;3.40;;;1.80;;
48727;SDS011;34527;45.618;5.130;2023-04-15T04:38:16;3.22;;;1.70;;
48727;SDS011;34527;45.618;5.130;2023-04-15T04:40:41;2.80;;;2.00;;
48727;SDS011;34527;45.618;5.130;2023-04-15T04:43:07;3.97;;;2.28;;
48727;SDS011;34527;45.618;5.130;2023-04-15T04:45:33;5.00;;;2.60;;
48727;SDS011;34527;45.618;5.130;2023-04-15T04:47:59;4.25;;;2.42;;
48727;SDS011;34527;45.618;5.130;2023-04-15T04:50:24;4.28;;;2.85;;
48727;SDS011;34527;45.618;5.130;2023-04-15T04:52:50;5.10;;;3.05;;
48727;SDS011;34527;45.618;5.130;2023-04-15T04:55:15;3.83;;;2.60;;
48727;SDS011;34527;45.618;5.130;2023-04-15T04:57:41;3.90;;;2.65;;
48727;SDS011;34527;45.618;5.130;2023-04-15T05:00:07;3.05;;;2.47;;
48727;SDS011;34527;45.618;5.130;2023-04-15T05:02:33;5.00;;;2.67;;
48727;SDS011;34527;45.618;5.130;2023-04-15T05:04:59;3.67;;;2.75;;
48727;SDS011;34527;45.618;5.130;2023-04-15T05:07:25;2.58;;;1.95;;
48727;SDS011;34527;45.618;5.130;2023-04-15T05:09:51;2.20;;;2.00;;
48727;SDS011;34527;45.618;5.130;2023-04-15T05:12:17;4.40;;;2.20;;
48727;SDS011;34527;45.618;5.130;2023-04-15T05:14:42;6.10;;;2.03;;
48727;SDS011;34527;45.618;5.130;2023-04-15T05:17:08;2.50;;;1.88;;
48727;SDS011;34527;45.618;5.130;2023-04-15T05:19:35;2.15;;;1.95;;
48727;SDS011;34527;45.618;5.130;2023-04-15T05:22:00;3.13;;;2.40;;
48727;SDS011;34527;45.618;5.130;2023-04-15T05:24:26;5.47;;;2.40;;
48727;SDS011;34527;45.618;5.130;2023-04-15T05:26:52;3.58;;;2.00;;
48727;SDS011;34527;45.618;5.130;2023-04-15T05:29:17;2.60;;;1.83;;
48727;SDS011;34527;45.618;5.130;2023-04-15T05:31:43;3.75;;;2.13;;
48727;SDS011;34527;45.618;5.130;2023-04-15T05:34:08;3.03;;;1.70;;
48727;SDS011;34527;45.618;5.130;2023-04-15T05:36:35;3.20;;;1.50;;
48727;SDS011;34527;45.618;5.130;2023-04-15T05:39:01;2.90;;;1.70;;
48727;SDS011;34527;45.618;5.130;2023-04-15T05:41:28;2.63;;;1.40;;
48727;SDS011;34527;45.618;5.130;2023-04-15T05:43:53;2.17;;;1.40;;
48727;SDS011;34527;45.618;5.130;2023-04-15T05:46:19;3.38;;;1.63;;
48727;SDS011;34527;45.618;5.130;2023-04-15T05:48:45;2.92;;;1.67;;
48727;SDS011;34527;45.618;5.130;2023-04-15T05:51:11;3.15;;;1.63;;
48727;SDS011;34527;45.618;5.130;2023-04-15T05:53:36;2.63;;;1.55;;
48727;SDS011;34527;45.618;5.130;2023-04-15T05:56:02;2.63;;;1.50;;
48727;SDS011;34527;45.618;5.130;2023-04-15T05:58:28;4.45;;;1.80;;
48727;SDS011;34527;45.618;5.130;2023-04-15T06:00:54;3.28;;;1.90;;
48727;SDS011;34527;45.618;5.130;2023-04-15T06:03:19;4.00;;;1.95;;
48727;SDS011;34527;45.618;5.130;2023-04-15T06:05:46;2.47;;;2.05;;
48727;SDS011;34527;45.618;5.130;2023-04-15T06:08:12;4.78;;;2.47;;
48727;SDS011;34527;45.618;5.130;2023-04-15T06:10:38;6.03;;;3.03;;
48727;SDS011;34527;45.618;5.130;2023-04-15T06:13:03;5.85;;;2.72;;
48727;SDS011;34527;45.618;5.130;2023-04-15T06:15:29;3.55;;;2.58;;
48727;SDS011;34527;45.618;5.130;2023-04-15T06:17:55;3.78;;;2.80;;
48727;SDS011;34527;45.618;5.130;2023-04-15T06:20:21;3.92;;;2.47;;
48727;SDS011;34527;45.618;5.130;2023-04-15T06:22:48;7.93;;;2.83;;
48727;SDS011;34527;45.618;5.130;2023-04-15T06:25:13;4.55;;;2.95;;
48727;SDS011;34527;45.618;5.130;2023-04-15T06:27:39;3.05;;;2.08;;
48727;SDS011;34527;45.618;5.130;2023-04-15T06:30:05;5.28;;;1.80;;
48727;SDS011;34527;45.618;5.130;2023-04-15T06:32:31;2.88;;;1.38;;
48727;SDS011;34527;45.618;5.130;2023-04-15T06:34:57;3.63;;;1.30;;
48727;SDS011;34527;45.618;5.130;2023-04-15T06:37:23;1.98;;;1.15;;
48727;SDS011;34527;45.618;5.130;2023-04-15T06:39:48;2.38;;;1.05;;
48727;SDS011;34527;45.618;5.130;2023-04-15T06:42:14;3.42;;;1.00;;
48727;SDS011;34527;45.618;5.130;2023-04-15T06:44:40;3.03;;;1.30;;
48727;SDS011;34527;45.618;5.130;2023-04-15T06:47:06;1.63;;;1.25;;
48727;SDS011;34527;45.618;5.130;2023-04-15T06:49:33;2.08;;;1.30;;
48727;SDS011;34527;45.618;5.130;2023-04-15T06:51:59;1.77;;;0.98;;
48727;SDS011;34527;45.618;5.130;2023-04-15T06:54:24;1.85;;;0.90;;
48727;SDS011;34527;45.618;5.130;2023-04-15T06:56:51;2.67;;;1.10;;
48727;SDS011;34527;45.618;5.130;2023-04-15T06:59:16;2.10;;;1.00;;
48727;SDS011;34527;45.618;5.130;2023-04-15T07:01:42;2.15;;;0.95;;
48727;SDS011;34527;45.618;5.130;2023-04-15T07:04:08;1.50;;;1.00;;
48727;SDS011;34527;45.618;5.130;2023-04-15T07:06:35;1.42;;;0.88;;
48727;SDS011;34527;45.618;5.130;2023-04-15T07:09:00;4.32;;;0.60;;
48727;SDS011;34527;45.618;5.130;2023-04-15T07:11:28;1.38;;;0.90;;
48727;SDS011;34527;45.618;5.130;2023-04-15T07:13:54;1.50;;;1.13;;
48727;SDS011;34527;45.618;5.130;2023-04-15T07:16:21;2.35;;;1.10;;
48727;SDS011;34527;45.618;5.130;2023-04-15T07:18:47;0.80;;;0.80;;
48727;SDS011;34527;45.618;5.130;2023-04-15T07:21:12;1.33;;;0.82;;
48727;SDS011;34527;45.618;5.130;2023-04-15T07:23:38;1.60;;;0.70;;
48727;SDS011;34527;45.618;5.130;2023-04-15T07:26:03;1.33;;;0.80;;
48727;SDS011;34527;45.618;5.130;2023-04-15T07:28:29;2.85;;;0.90;;
48727;SDS011;34527;45.618;5.130;2023-04-15T07:30:55;2.97;;;0.70;;
48727;SDS011;34527;45.618;5.130;2023-04-15T07:33:21;2.05;;;1.00;;
48727;SDS011;34527;45.618;5.130;2023-04-15T07:35:47;2.25;;;1.27;;
48727;SDS011;34527;45.618;5.130;2023-04-15T07:38:14;2.80;;;1.00;;
48727;SDS011;34527;45.618;5.130;2023-04-15T07:40:39;1.58;;;0.80;;
48727;SDS011;34527;45.618;5.130;2023-04-15T07:43:06;2.25;;;0.85;;
48727;SDS011;34527;45.618;5.130;2023-04-15T07:45:32;1.40;;;1.10;;
48727;SDS011;34527;45.618;5.130;2023-04-15T07:47:59;1.58;;;0.77;;
48727;SDS011;34527;45.618;5.130;2023-04-15T07:50:25;2.47;;;1.27;;
48727;SDS011;34527;45.618;5.130;2023-04-15T07:52:51;2.83;;;1.45;;
48727;SDS011;34527;45.618;5.130;2023-04-15T07:55:17;3.20;;;0.80;;
48727;SDS011;34527;45.618;5.130;2023-04-15T07:57:45;2.22;;;1.10;;
48727;SDS011;34527;45.618;5.130;2023-04-15T08:00:11;1.10;;;0.90;;
48727;SDS011;34527;45.618;5.130;2023-04-15T08:02:38;1.63;;;0.90;;
48727;SDS011;34527;45.618;5.130;2023-04-15T08:05:04;1.95;;;0.63;;
48727;SDS011;34527;45.618;5.130;2023-04-15T08:07:31;2.22;;;1.23;;
48727;SDS011;34527;45.618;5.130;2023-04-15T08:09:57;1.30;;;0.70;;
48727;SDS011;34527;45.618;5.130;2023-04-15T08:12:22;2.45;;;0.95;;
48727;SDS011;34527;45.618;5.130;2023-04-15T08:14:49;1.45;;;0.70;;
48727;SDS011;34527;45.618;5.130;2023-04-15T08:17:15;1.23;;;0.70;;
48727;SDS011;34527;45.618;5.130;2023-04-15T08:19:40;0.68;;;0.43;;
48727;SDS011;34527;45.618;5.130;2023-04-15T08:22:06;0.40;;;0.40;;
48727;SDS011;34527;45.618;5.130;2023-04-15T08:24:32;0.55;;;0.47;;
48727;SDS011;34527;45.618;5.130;2023-04-15T08:26:58;1.55;;;0.40;;
48727;SDS011;34527;45.618;5.130;2023-04-15T08:29:25;1.10;;;0.60;;
48727;SDS011;34527;45.618;5.130;2023-04-15T08:31:51;0.40;;;0.40;;
48727;SDS011;34527;45.618;5.130;2023-04-15T08:34:17;0.85;;;0.60;;
48727;SDS011;34527;45.618;5.130;2023-04-15T08:36:43;0.63;;;0.45;;
48727;SDS011;34527;45.618;5.130;2023-04-15T08:39:09;0.38;;;0.38;;
48727;SDS011;34527;45.618;5.130;2023-04-15T08:44:36;1.25;;;0.40;;
48727;SDS011;34527;45.618;5.130;2023-04-15T08:47:02;0.40;;;0.40;;
48727;SDS011;34527;45.618;5.130;2023-04-15T08:49:31;0.40;;;0.40;;
48727;SDS011;34527;45.618;5.130;2023-04-15T08:51:57;0.88;;;0.40;;
48727;SDS011;34527;45.618;5.130;2023-04-15T08:54:23;0.68;;;0.40;;
48727;SDS011;34527;45.618;5.130;2023-04-15T08:56:49;1.98;;;0.63;;
48727;SDS011;34527;45.618;5.130;2023-04-15T08:59:16;0.88;;;0.77;;
48727;SDS011;34527;45.618;5.130;2023-04-15T09:01:42;0.63;;;0.50;;
48727;SDS011;34527;45.618;5.130;2023-04-15T09:04:08;0.50;;;0.50;;
48727;SDS011;34527;45.618;5.130;2023-04-15T09:06:36;0.88;;;0.70;;
48727;SDS011;34527;45.618;5.130;2023-04-15T09:09:04;1.38;;;0.52;;
48727;SDS011;34527;45.618;5.130;2023-04-15T09:11:29;0.70;;;0.65;;
48727;SDS011;34527;45.618;5.130;2023-04-15T09:13:55;0.90;;;0.77;;
48727;SDS011;34527;45.618;5.130;2023-04-15T09:16:21;1.38;;;0.93;;
48727;SDS011;34527;45.618;5.130;2023-04-15T09:18:47;0.70;;;0.70;;
48727;SDS011;34527;45.618;5.130;2023-04-15T09:21:14;0.80;;;0.80;;
48727;SDS011;34527;45.618;5.130;2023-04-15T09:23:52;2.58;;;0.80;;
48727;SDS011;34527;45.618;5.130;2023-04-15T09:26:32;0.85;;;0.70;;
48727;SDS011;34527;45.618;5.130;2023-04-15T09:29:05;0.80;;;0.60;;
48727;SDS011;34527;45.618;5.130;2023-04-15T09:31:32;1.13;;;0.82;;
48727;SDS011;34527;45.618;5.130;2023-04-15T09:33:58;2.80;;;0.80;;
48727;SDS011;34527;45.618;5.130;2023-04-15T09:36:23;2.22;;;0.70;;
48727;SDS011;34527;45.618;5.130;2023-04-15T09:38:56;2.63;;;0.70;;
48727;SDS011;34527;45.618;5.130;2023-04-15T09:41:23;0.82;;;0.82;;
48727;SDS011;34527;45.618;5.130;2023-04-15T09:43:50;1.00;;;0.70;;
48727;SDS011;34527;45.618;5.130;2023-04-15T09:46:15;2.97;;;0.95;;
48727;SDS011;34527;45.618;5.130;2023-04-15T09:48:41;2.47;;;0.77;;
48727;SDS011;34527;45.618;5.130;2023-04-15T09:51:07;1.20;;;0.85;;
48727;SDS011;34527;45.618;5.130;2023-04-15T09:53:33;1.17;;;0.70;;
48727;SDS011;34527;45.618;5.130;2023-04-15T09:56:00;1.67;;;0.85;;
48727;SDS011;34527;45.618;5.130;2023-04-15T09:58:27;1.10;;;0.80;;
48727;SDS011;34527;45.618;5.130;2023-04-15T10:00:54;0.95;;;0.90;;
48727;SDS011;34527;45.618;5.130;2023-04-15T10:03:22;1.60;;;0.90;;
48727;SDS011;34527;45.618;5.130;2023-04-15T10:05:53;1.60;;;1.02;;
48727;SDS011;34527;45.618;5.130;2023-04-15T10:08:22;1.35;;;1.25;;
48727;SDS011;34527;45.618;5.130;2023-04-15T10:10:50;2.08;;;1.08;;
48727;SDS011;34527;45.618;5.130;2023-04-15T10:13:17;1.58;;;1.08;;
48727;SDS011;34527;45.618;5.130;2023-04-15T10:15:44;2.25;;;0.90;;
48727;SDS011;34527;45.618;5.130;2023-04-15T10:18:18;2.25;;;1.48;;
48727;SDS011;34527;45.618;5.130;2023-04-15T10:20:46;2.78;;;0.70;;
48727;SDS011;34527;45.618;5.130;2023-04-15T10:23:12;0.60;;;0.60;;
48727;SDS011;34527;45.618;5.130;2023-04-15T10:25:39;0.50;;;0.50;;
48727;SDS011;34527;45.618;5.130;2023-04-15T10:28:05;1.38;;;0.50;;
48727;SDS011;34527;45.618;5.130;2023-04-15T10:30:33;1.85;;;0.50;;
48727;SDS011;34527;45.618;5.130;2023-04-15T10:33:02;0.35;;;0.35;;
48727;SDS011;34527;45.618;5.130;2023-04-15T10:35:29;0.50;;;0.50;;
48727;SDS011;34527;45.618;5.130;2023-04-15T10:37:56;1.20;;;0.70;;
48727;SDS011;34527;45.618;5.130;2023-04-15T10:42:55;0.70;;;0.40;;
48727;SDS011;34527;45.618;5.130;2023-04-15T10:45:24;0.45;;;0.30;;
48727;SDS011;34527;45.618;5.130;2023-04-15T10:48:08;1.00;;;0.70;;
48727;SDS011;34527;45.618;5.130;2023-04-15T10:50:34;0.55;;;0.55;;
48727;SDS011;34527;45.618;5.130;2023-04-15T10:53:02;1.08;;;0.70;;
48727;SDS011;34527;45.618;5.130;2023-04-15T10:55:32;0.57;;;0.40;;
48727;SDS011;34527;45.618;5.130;2023-04-15T10:57:59;0.63;;;0.40;;
48727;SDS011;34527;45.618;5.130;2023-04-15T11:00:27;0.60;;;0.50;;
48727;SDS011;34527;45.618;5.130;2023-04-15T11:03:09;0.52;;;0.50;;
48727;SDS011;34527;45.618;5.130;2023-04-15T11:08:14;0.50;;;0.50;;
48727;SDS011;34527;45.618;5.130;2023-04-15T11:15:36;0.60;;;0.60;;
48727;SDS011;34527;45.618;5.130;2023-04-15T11:18:11;0.50;;;0.40;;
48727;SDS011;34527;45.618;5.130;2023-04-15T11:20:39;0.50;;;0.50;;
48727;SDS011;34527;45.618;5.130;2023-04-15T11:23:07;1.38;;;0.77;;
48727;SDS011;34527;45.618;5.130;2023-04-15T11:25:34;1.20;;;0.65;;
48727;SDS011;34527;45.618;5.130;2023-04-15T11:28:03;0.55;;;0.50;;
48727;SDS011;34527;45.618;5.130;2023-04-15T11:30:31;0.40;;;0.40;;
48727;SDS011;34527;45.618;5.130;2023-04-15T11:32:59;0.68;;;0.68;;
48727;SDS011;34527;45.618;5.130;2023-04-15T11:35:26;1.80;;;0.52;;
48727;SDS011;34527;45.618;5.130;2023-04-15T11:37:52;2.55;;;0.60;;
48727;SDS011;34527;45.618;5.130;2023-04-15T11:40:22;0.60;;;0.50;;
48727;SDS011;34527;45.618;5.130;2023-04-15T11:45:36;0.60;;;0.50;;
48727;SDS011;34527;45.618;5.130;2023-04-15T11:48:09;1.33;;;0.50;;
48727;SDS011;34527;45.618;5.130;2023-04-15T11:50:36;0.70;;;0.47;;
48727;SDS011;34527;45.618;5.130;2023-04-15T11:53:06;0.50;;;0.50;;
48727;SDS011;34527;45.618;5.130;2023-04-15T11:58:17;1.05;;;0.55;;
48727;SDS011;34527;45.618;5.130;2023-04-15T12:00:48;0.77;;;0.68;;
48727;SDS011;34527;45.618;5.130;2023-04-15T12:06:03;1.00;;;0.80;;
48727;SDS011;34527;45.618;5.130;2023-04-15T12:14:03;1.75;;;0.88;;
48727;SDS011;34527;45.618;5.130;2023-04-15T12:16:35;0.82;;;0.52;;
48727;SDS011;34527;45.618;5.130;2023-04-15T12:19:06;0.95;;;0.70;;
48727;SDS011;34527;45.618;5.130;2023-04-15T12:21:35;0.90;;;0.90;;
48727;SDS011;34527;45.618;5.130;2023-04-15T12:24:04;1.10;;;0.60;;
48727;SDS011;34527;45.618;5.130;2023-04-15T12:26:42;1.23;;;1.13;;
48727;SDS011;34527;45.618;5.130;2023-04-15T12:29:10;3.75;;;0.93;;
48727;SDS011;34527;45.618;5.130;2023-04-15T12:31:42;1.08;;;0.80;;
48727;SDS011;34527;45.618;5.130;2023-04-15T12:37:19;1.45;;;0.40;;
48727;SDS011;34527;45.618;5.130;2023-04-15T12:39:46;0.35;;;0.35;;
48727;SDS011;34527;45.618;5.130;2023-04-15T12:42:16;0.73;;;0.50;;
48727;SDS011;34527;45.618;5.130;2023-04-15T12:44:42;0.50;;;0.40;;
48727;SDS011;34527;45.618;5.130;2023-04-15T12:47:08;0.57;;;0.40;;
48727;SDS011;34527;45.618;5.130;2023-04-15T12:49:35;1.33;;;0.75;;
48727;SDS011;34527;45.618;5.130;2023-04-15T12:52:02;1.15;;;0.40;;
48727;SDS011;34527;45.618;5.130;2023-04-15T12:54:28;0.85;;;0.40;;
48727;SDS011;34527;45.618;5.130;2023-04-15T12:56:55;0.85;;;0.32;;
48727;SDS011;34527;45.618;5.130;2023-04-15T12:59:21;0.35;;;0.30;;
48727;SDS011;34527;45.618;5.130;2023-04-15T13:01:47;1.42;;;0.30;;
48727;SDS011;34527;45.618;5.130;2023-04-15T13:04:14;0.63;;;0.40;;
48727;SDS011;34527;45.618;5.130;2023-04-15T13:06:40;1.38;;;0.52;;
48727;SDS011;34527;45.618;5.130;2023-04-15T13:09:06;1.17;;;0.28;;
48727;SDS011;34527;45.618;5.130;2023-04-15T13:11:32;0.70;;;0.38;;
48727;SDS011;34527;45.618;5.130;2023-04-15T13:13:59;0.28;;;0.20;;
48727;SDS011;34527;45.618;5.130;2023-04-15T13:16:26;0.40;;;0.40;;
48727;SDS011;34527;45.618;5.130;2023-04-15T13:18:51;0.20;;;0.20;;
48727;SDS011;34527;45.618;5.130;2023-04-15T13:21:17;0.40;;;0.40;;
48727;SDS011;34527;45.618;5.130;2023-04-15T13:23:43;0.30;;;0.30;;
48727;SDS011;34527;45.618;5.130;2023-04-15T13:26:09;0.40;;;0.40;;
48727;SDS011;34527;45.618;5.130;2023-04-15T13:28:35;0.47;;;0.47;;
48727;SDS011;34527;45.618;5.130;2023-04-15T13:31:01;0.40;;;0.40;;
48727;SDS011;34527;45.618;5.130;2023-04-15T13:33:27;0.75;;;0.57;;
48727;SDS011;34527;45.618;5.130;2023-04-15T13:35:52;1.48;;;0.50;;
48727;SDS011;34527;45.618;5.130;2023-04-15T13:38:18;0.60;;;0.47;;
48727;SDS011;34527;45.618;5.130;2023-04-15T13:40:44;0.32;;;0.32;;
48727;SDS011;34527;45.618;5.130;2023-04-15T13:43:09;0.40;;;0.40;;
48727;SDS011;34527;45.618;5.130;2023-04-15T13:45:36;0.57;;;0.40;;
48727;SDS011;34527;45.618;5.130;2023-04-15T13:48:01;2.17;;;0.50;;
48727;SDS011;34527;45.618;5.130;2023-04-15T13:50:27;0.30;;;0.30;;
48727;SDS011;34527;45.618;5.130;2023-04-15T13:52:53;1.20;;;0.40;;
48727;SDS011;34527;45.618;5.130;2023-04-15T13:55:19;0.50;;;0.50;;
48727;SDS011;34527;45.618;5.130;2023-04-15T13:57:44;0.43;;;0.43;;
48727;SDS011;34527;45.618;5.130;2023-04-15T14:00:10;1.98;;;0.43;;
48727;SDS011;34527;45.618;5.130;2023-04-15T14:02:36;0.40;;;0.40;;
48727;SDS011;34527;45.618;5.130;2023-04-15T14:05:02;0.40;;;0.30;;
48727;SDS011;34527;45.618;5.130;2023-04-15T14:07:28;0.47;;;0.47;;
48727;SDS011;34527;45.618;5.130;2023-04-15T14:09:54;0.45;;;0.45;;
48727;SDS011;34527;45.618;5.130;2023-04-15T14:12:20;1.00;;;0.50;;
48727;SDS011;34527;45.618;5.130;2023-04-15T14:14:46;0.55;;;0.55;;
48727;SDS011;34527;45.618;5.130;2023-04-15T14:17:12;1.05;;;0.60;;
48727;SDS011;34527;45.618;5.130;2023-04-15T14:19:38;0.75;;;0.70;;
48727;SDS011;34527;45.618;5.130;2023-04-15T14:22:03;0.50;;;0.50;;
48727;SDS011;34527;45.618;5.130;2023-04-15T14:24:29;2.13;;;0.45;;
48727;SDS011;34527;45.618;5.130;2023-04-15T14:26:55;0.52;;;0.52;;
48727;SDS011;34527;45.618;5.130;2023-04-15T14:29:21;1.58;;;0.70;;
48727;SDS011;34527;45.618;5.130;2023-04-15T14:31:47;0.57;;;0.57;;
48727;SDS011;34527;45.618;5.130;2023-04-15T14:34:14;1.63;;;0.70;;
48727;SDS011;34527;45.618;5.130;2023-04-15T14:36:40;0.93;;;0.80;;
48727;SDS011;34527;45.618;5.130;2023-04-15T14:39:06;0.57;;;0.57;;
48727;SDS011;34527;45.618;5.130;2023-04-15T14:41:32;0.70;;;0.70;;
48727;SDS011;34527;45.618;5.130;2023-04-15T14:43:58;0.85;;;0.57;;
48727;SDS011;34527;45.618;5.130;2023-04-15T14:46:24;1.67;;;0.80;;
48727;SDS011;34527;45.618;5.130;2023-04-15T14:48:50;2.05;;;0.85;;
48727;SDS011;34527;45.618;5.130;2023-04-15T14:51:16;0.80;;;0.80;;
48727;SDS011;34527;45.618;5.130;2023-04-15T14:53:42;2.00;;;0.70;;
48727;SDS011;34527;45.618;5.130;2023-04-15T14:56:08;1.48;;;0.88;;
48727;SDS011;34527;45.618;5.130;2023-04-15T14:58:34;1.17;;;0.85;;
48727;SDS011;34527;45.618;5.130;2023-04-15T15:01:00;1.00;;;0.90;;
48727;SDS011;34527;45.618;5.130;2023-04-15T15:03:26;1.88;;;1.17;;
48727;SDS011;34527;45.618;5.130;2023-04-15T15:05:52;1.25;;;0.88;;
48727;SDS011;34527;45.618;5.130;2023-04-15T15:08:18;1.10;;;0.98;;
48727;SDS011;34527;45.618;5.130;2023-04-15T15:10:44;1.25;;;1.00;;
48727;SDS011;34527;45.618;5.130;2023-04-15T15:13:10;2.72;;;1.17;;